createdAt,value
2016-02-09T00:00:01.364Z,981.02
2016-02-09T00:01:01.366Z,981.15
2016-02-09T00:02:01.354Z,981.12
2016-02-09T00:03:01.357Z,981.14
2016-02-09T00:04:01.359Z,981.06
2016-02-09T00:05:01.362Z,981.1
2016-02-09T00:06:01.365Z,981.13
2016-02-09T00:07:01.352Z,981.12
2016-02-09T00:08:01.355Z,981.06
2016-02-09T00:09:01.374Z,981.07
2016-02-09T00:10:01.360Z,980.88
2016-02-09T00:11:01.348Z,980.94
2016-02-09T00:12:01.382Z,980.92
2016-02-09T00:13:01.354Z,981.03
2016-02-09T00:14:01.355Z,981.02
2016-02-09T00:15:01.359Z,980.97
2016-02-09T00:16:01.361Z,980.91
2016-02-09T00:17:01.348Z,980.96
2016-02-09T00:18:01.351Z,980.93
2016-02-09T00:19:01.369Z,980.93
2016-02-09T00:20:01.357Z,981.01
2016-02-09T00:21:01.360Z,980.96
2016-02-09T00:22:01.378Z,980.99
2016-02-09T00:23:01.357Z,980.96
2016-02-09T00:24:01.360Z,980.98
2016-02-09T00:25:01.363Z,980.93
2016-02-09T00:26:01.365Z,980.89
2016-02-09T00:27:01.353Z,980.93
2016-02-09T00:28:01.359Z,980.92
2016-02-09T00:29:01.361Z,980.9
2016-02-09T00:30:01.364Z,980.91
2016-02-09T00:31:01.351Z,980.9
2016-02-09T00:32:01.353Z,980.82
2016-02-09T00:33:01.356Z,980.87
2016-02-09T00:34:01.358Z,980.86
2016-02-09T00:35:01.362Z,980.92
2016-02-09T00:36:01.364Z,980.88
2016-02-09T00:37:01.367Z,980.94
2016-02-09T00:38:01.400Z,980.98
2016-02-09T00:39:01.403Z,980.95
2016-02-09T00:40:01.359Z,980.93
2016-02-09T00:41:01.364Z,980.96
2016-02-09T00:42:01.352Z,980.94
2016-02-09T00:43:01.355Z,981.04
2016-02-09T00:44:01.357Z,981.03
2016-02-09T00:45:01.361Z,980.94
2016-02-09T00:46:01.363Z,981.04
2016-02-09T00:47:01.350Z,981.01
2016-02-09T00:48:01.370Z,981.04
2016-02-09T00:49:01.357Z,980.99
2016-02-09T00:50:01.360Z,981.04
2016-02-09T00:51:01.362Z,981.04
2016-02-09T00:52:01.365Z,981.01
2016-02-09T00:53:01.358Z,980.94
2016-02-09T00:54:01.378Z,980.95
2016-02-09T00:55:01.364Z,980.9
2016-02-09T00:56:01.367Z,980.95
2016-02-09T00:57:01.370Z,981.02
2016-02-09T00:58:01.357Z,981.02
2016-02-09T00:59:01.360Z,981.09
2016-02-09T01:00:01.362Z,981.12
2016-02-09T01:01:01.365Z,981.2
2016-02-09T01:02:01.351Z,981.21
2016-02-09T01:03:01.355Z,981.17
2016-02-09T01:04:01.359Z,981.26
2016-02-09T01:05:01.361Z,981.24
2016-02-09T01:06:01.363Z,981.36
2016-02-09T01:07:01.367Z,981.33
2016-02-09T01:08:01.353Z,981.34
2016-02-09T01:09:01.356Z,981.31
2016-02-09T01:10:01.359Z,981.35
2016-02-09T01:11:01.361Z,981.36
2016-02-09T01:12:01.364Z,981.35
2016-02-09T01:13:01.366Z,981.4
2016-02-09T01:14:01.355Z,981.35
2016-02-09T01:15:01.357Z,981.47
2016-02-09T01:16:01.359Z,981.49
2016-02-09T01:17:01.364Z,981.44
2016-02-09T01:18:01.366Z,981.4
2016-02-09T01:19:01.353Z,981.38
2016-02-09T01:20:01.355Z,981.45
2016-02-09T01:21:01.358Z,981.37
2016-02-09T01:22:01.361Z,981.36
2016-02-09T01:23:01.363Z,981.38
2016-02-09T01:24:01.350Z,981.36
2016-02-09T01:25:01.353Z,981.33
2016-02-09T01:26:01.355Z,981.26
2016-02-09T01:27:01.359Z,981.27
2016-02-09T01:28:01.361Z,981.32
2016-02-09T01:29:01.363Z,981.31
2016-02-09T01:30:01.353Z,981.29
2016-02-09T01:31:01.403Z,981.29
2016-02-09T01:32:01.359Z,981.34
2016-02-09T01:33:01.361Z,981.29
2016-02-09T01:34:01.379Z,981.33
2016-02-09T01:35:01.367Z,981.33
2016-02-09T01:36:01.370Z,981.37
2016-02-09T01:37:01.372Z,981.38
2016-02-09T01:38:01.374Z,981.27
2016-02-09T01:39:01.363Z,981.26
2016-02-09T01:40:01.365Z,981.21
2016-02-09T01:41:01.352Z,981.25
2016-02-09T01:42:01.354Z,981.15
2016-02-09T01:43:01.357Z,981.08
2016-02-09T01:44:01.361Z,981.04
2016-02-09T01:45:01.364Z,981.05
2016-02-09T01:46:01.366Z,981.05
2016-02-09T01:47:01.355Z,981
2016-02-09T01:48:01.373Z,981.01
2016-02-09T01:49:01.361Z,980.98
2016-02-09T01:50:01.363Z,980.94
2016-02-09T01:51:01.365Z,980.89
2016-02-09T01:52:01.355Z,980.85
2016-02-09T01:53:01.359Z,980.84
2016-02-09T01:54:01.361Z,980.72
2016-02-09T01:55:01.370Z,980.74
2016-02-09T01:56:01.356Z,980.77
2016-02-09T01:57:01.358Z,980.76
2016-02-09T01:58:01.378Z,980.8
2016-02-09T01:59:01.364Z,980.8
2016-02-09T02:00:01.354Z,980.77
2016-02-09T02:01:01.372Z,980.81
2016-02-09T02:02:01.359Z,980.9
2016-02-09T02:03:01.362Z,980.88
2016-02-09T02:04:01.349Z,980.9
2016-02-09T02:05:01.383Z,980.86
2016-02-09T02:06:01.370Z,980.87
2016-02-09T02:07:01.357Z,980.89
2016-02-09T02:08:01.360Z,980.89
2016-02-09T02:09:01.362Z,980.9
2016-02-09T02:10:01.365Z,980.93
2016-02-09T02:11:01.352Z,980.95
2016-02-09T02:12:01.386Z,981.04
2016-02-09T02:13:01.390Z,981.04
2016-02-09T02:14:01.361Z,981.04
2016-02-09T02:15:01.365Z,981.03
2016-02-09T02:16:01.383Z,980.97
2016-02-09T02:17:01.355Z,980.88
2016-02-09T02:18:01.372Z,980.91
2016-02-09T02:19:01.379Z,980.82
2016-02-09T02:20:01.382Z,980.81
2016-02-09T02:21:01.354Z,980.82
2016-02-09T02:22:01.373Z,980.84
2016-02-09T02:23:01.360Z,980.95
2016-02-09T02:24:01.379Z,981.01
2016-02-09T02:25:01.361Z,980.99
2016-02-09T02:26:01.364Z,980.95
2016-02-09T02:27:01.366Z,980.97
2016-02-09T02:28:01.355Z,980.82
2016-02-09T02:29:01.358Z,980.79
2016-02-09T02:30:01.361Z,980.84
2016-02-09T02:31:01.380Z,980.82
2016-02-09T02:32:01.367Z,980.89
2016-02-09T02:33:01.352Z,980.77
2016-02-09T02:34:01.355Z,980.76
2016-02-09T02:35:01.357Z,980.67
2016-02-09T02:36:01.359Z,980.68
2016-02-09T02:37:01.362Z,980.7
2016-02-09T02:38:01.349Z,980.75
2016-02-09T02:39:01.351Z,980.8
2016-02-09T02:40:01.354Z,980.74
2016-02-09T02:41:01.359Z,980.78
2016-02-09T02:42:01.361Z,980.75
2016-02-09T02:43:01.364Z,980.65
2016-02-09T02:44:01.367Z,980.55
2016-02-09T02:45:01.353Z,980.58
2016-02-09T02:46:01.356Z,980.63
2016-02-09T02:47:01.359Z,980.62
2016-02-09T02:48:01.362Z,980.64
2016-02-09T02:49:01.366Z,980.65
2016-02-09T02:50:01.354Z,980.6
2016-02-09T02:51:01.357Z,980.62
2016-02-09T02:52:01.359Z,980.51
2016-02-09T02:53:01.364Z,980.62
2016-02-09T02:54:01.382Z,980.59
2016-02-09T02:55:01.369Z,980.64
2016-02-09T02:56:01.373Z,980.64
2016-02-09T02:57:01.375Z,980.66
2016-02-09T02:58:01.393Z,980.62
2016-02-09T02:59:01.380Z,980.56
2016-02-09T03:00:01.367Z,980.58
2016-02-09T03:01:01.386Z,980.65
2016-02-09T03:02:01.357Z,980.65
2016-02-09T03:03:01.393Z,980.63
2016-02-09T03:04:01.380Z,980.58
2016-02-09T03:05:01.383Z,980.46
2016-02-09T03:06:01.370Z,980.48
2016-02-09T03:07:01.372Z,980.49
2016-02-09T03:08:01.360Z,980.5
2016-02-09T03:09:01.362Z,980.46
2016-02-09T03:10:01.365Z,980.42
2016-02-09T03:11:01.369Z,980.46
2016-02-09T03:12:01.386Z,980.49
2016-02-09T03:13:01.374Z,980.47
2016-02-09T03:14:01.361Z,980.52
2016-02-09T03:15:01.364Z,980.55
2016-02-09T03:16:01.366Z,980.47
2016-02-09T03:17:01.386Z,980.45
2016-02-09T03:18:01.373Z,980.42
2016-02-09T03:19:01.376Z,980.46
2016-02-09T03:20:01.363Z,980.45
2016-02-09T03:21:01.366Z,980.44
2016-02-09T03:22:01.388Z,980.47
2016-02-09T03:23:01.374Z,980.46
2016-02-09T03:24:01.377Z,980.4
2016-02-09T03:25:01.380Z,980.33
2016-02-09T03:26:01.383Z,980.26
2016-02-09T03:27:01.371Z,980.26
2016-02-09T03:28:01.405Z,980.28
2016-02-09T03:29:01.392Z,980.29
2016-02-09T03:30:01.379Z,980.4
2016-02-09T03:31:01.382Z,980.37
2016-02-09T03:32:01.368Z,980.36
2016-02-09T03:33:01.387Z,980.45
2016-02-09T03:34:01.374Z,980.48
2016-02-09T03:35:01.377Z,980.45
2016-02-09T03:36:01.379Z,980.51
2016-02-09T03:37:01.398Z,980.43
2016-02-09T03:38:01.385Z,980.46
2016-02-09T03:39:01.373Z,980.47
2016-02-09T03:40:01.376Z,980.36
2016-02-09T03:41:01.379Z,980.35
2016-02-09T03:42:01.381Z,980.3
2016-02-09T03:43:01.384Z,980.33
2016-02-09T03:44:01.388Z,980.34
2016-02-09T03:45:01.390Z,980.34
2016-02-09T03:46:01.393Z,980.22
2016-02-09T03:47:01.399Z,980.27
2016-02-09T03:48:01.387Z,980.31
2016-02-09T03:49:01.374Z,980.29
2016-02-09T03:50:01.395Z,980.24
2016-02-09T03:51:01.382Z,980.2
2016-02-09T03:52:01.385Z,980.16
2016-02-09T03:53:01.388Z,980.11
2016-02-09T03:54:01.390Z,980.15
2016-02-09T03:55:01.409Z,980.04
2016-02-09T03:56:01.379Z,980.04
2016-02-09T03:57:01.382Z,980.02
2016-02-09T03:58:01.385Z,980.01
2016-02-09T03:59:01.387Z,979.98
2016-02-09T04:00:01.379Z,980
2016-02-09T04:01:01.383Z,980.08
2016-02-09T04:02:01.400Z,980.04
2016-02-09T04:03:01.388Z,980.04
2016-02-09T04:04:01.390Z,980.02
2016-02-09T04:05:01.393Z,980.06
2016-02-09T04:06:01.379Z,980.01
2016-02-09T04:07:01.382Z,979.97
2016-02-09T04:08:01.401Z,979.92
2016-02-09T04:09:01.390Z,979.92
2016-02-09T04:10:01.393Z,979.95
2016-02-09T04:11:01.379Z,979.89
2016-02-09T04:12:01.382Z,979.87
2016-02-09T04:13:01.384Z,979.8
2016-02-09T04:14:01.391Z,979.84
2016-02-09T04:15:01.379Z,979.91
2016-02-09T04:16:01.381Z,979.97
2016-02-09T04:17:01.384Z,979.98
2016-02-09T04:18:01.387Z,979.96
2016-02-09T04:19:01.390Z,979.96
2016-02-09T04:20:01.392Z,979.94
2016-02-09T04:21:01.396Z,979.96
2016-02-09T04:22:01.399Z,979.87
2016-02-09T04:23:01.386Z,979.91
2016-02-09T04:24:01.388Z,979.91
2016-02-09T04:25:01.391Z,979.89
2016-02-09T04:26:01.394Z,979.87
2016-02-09T04:27:01.412Z,979.83
2016-02-09T04:28:01.401Z,979.85
2016-02-09T04:29:01.388Z,979.81
2016-02-09T04:30:01.407Z,979.87
2016-02-09T04:31:01.425Z,979.91
2016-02-09T04:32:01.396Z,979.94
2016-02-09T04:33:01.399Z,979.92
2016-02-09T04:34:01.402Z,979.93
2016-02-09T04:35:01.404Z,979.92
2016-02-09T04:36:01.408Z,979.91
2016-02-09T04:37:01.396Z,979.85
2016-02-09T04:38:01.399Z,979.81
2016-02-09T04:39:01.401Z,979.87
2016-02-09T04:40:01.404Z,979.9
2016-02-09T04:41:01.407Z,979.87
2016-02-09T04:42:01.409Z,979.89
2016-02-09T04:43:01.380Z,979.86
2016-02-09T04:44:01.383Z,979.89
2016-02-09T04:45:01.386Z,979.94
2016-02-09T04:46:01.389Z,979.92
2016-02-09T04:47:01.392Z,979.88
2016-02-09T04:48:01.379Z,979.88
2016-02-09T04:49:01.382Z,979.85
2016-02-09T04:50:01.386Z,979.85
2016-02-09T04:51:01.391Z,979.86
2016-02-09T04:52:01.378Z,979.85
2016-02-09T04:53:01.381Z,979.86
2016-02-09T04:54:01.383Z,979.9
2016-02-09T04:55:01.386Z,979.86
2016-02-09T04:56:01.373Z,979.87
2016-02-09T04:57:01.376Z,979.86
2016-02-09T04:58:01.379Z,979.87
2016-02-09T04:59:01.382Z,979.84
2016-02-09T05:00:01.385Z,979.87
2016-02-09T05:01:01.387Z,979.89
2016-02-09T05:02:01.375Z,979.8
2016-02-09T05:03:01.378Z,979.77
2016-02-09T05:04:01.382Z,979.75
2016-02-09T05:05:01.384Z,979.72
2016-02-09T05:06:01.387Z,979.68
2016-02-09T05:07:01.404Z,979.6
2016-02-09T05:08:01.376Z,979.56
2016-02-09T05:09:01.395Z,979.58
2016-02-09T05:10:01.398Z,979.56
2016-02-09T05:11:01.370Z,979.56
2016-02-09T05:12:01.373Z,979.55
2016-02-09T05:13:01.375Z,979.53
2016-02-09T05:14:01.379Z,979.52
2016-02-09T05:15:01.381Z,979.45
2016-02-09T05:16:01.383Z,979.48
2016-02-09T05:17:01.401Z,979.41
2016-02-09T05:18:01.373Z,979.42
2016-02-09T05:19:01.407Z,979.39
2016-02-09T05:20:01.378Z,979.34
2016-02-09T05:21:01.381Z,979.38
2016-02-09T05:22:01.371Z,979.39
2016-02-09T05:23:01.378Z,979.37
2016-02-09T05:24:01.380Z,979.37
2016-02-09T05:25:01.383Z,979.35
2016-02-09T05:26:01.370Z,979.34
2016-02-09T05:27:01.388Z,979.28
2016-02-09T05:28:01.376Z,979.3
2016-02-09T05:29:01.379Z,979.33
2016-02-09T05:30:01.381Z,979.35
2016-02-09T05:31:01.365Z,979.32
2016-02-09T05:32:01.367Z,979.27
2016-02-09T05:33:01.389Z,979.29
2016-02-09T05:34:01.359Z,979.23
2016-02-09T05:35:01.362Z,979.24
2016-02-09T05:36:01.364Z,979.15
2016-02-09T05:37:01.367Z,979.14
2016-02-09T05:38:01.355Z,979.14
2016-02-09T05:39:01.357Z,979.14
2016-02-09T05:40:01.360Z,979.13
2016-02-09T05:41:01.347Z,979.06
2016-02-09T05:42:01.350Z,979.07
2016-02-09T05:43:01.352Z,979.08
2016-02-09T05:44:01.355Z,979.04
2016-02-09T05:45:01.357Z,979.05
2016-02-09T05:46:01.360Z,979.07
2016-02-09T05:47:01.350Z,979
2016-02-09T05:48:01.352Z,979
2016-02-09T05:49:01.354Z,979
2016-02-09T05:50:01.357Z,979.02
2016-02-09T05:51:01.344Z,978.97
2016-02-09T05:52:01.363Z,978.93
2016-02-09T05:53:01.350Z,978.91
2016-02-09T05:54:01.355Z,978.9
2016-02-09T05:55:01.357Z,978.93
2016-02-09T05:56:01.344Z,978.96
2016-02-09T05:57:01.347Z,978.93
2016-02-09T05:58:01.366Z,978.9
2016-02-09T05:59:01.352Z,978.9
2016-02-09T06:00:01.355Z,978.98
2016-02-09T06:01:01.343Z,979.02
2016-02-09T06:02:01.361Z,979.07
2016-02-09T06:03:01.348Z,978.99
2016-02-09T06:04:01.351Z,978.92
2016-02-09T06:05:01.339Z,978.87
2016-02-09T06:06:01.341Z,978.88
2016-02-09T06:07:01.349Z,978.9
2016-02-09T06:08:01.351Z,978.87
2016-02-09T06:09:01.339Z,978.74
2016-02-09T06:10:01.342Z,978.66
2016-02-09T06:11:01.361Z,978.63
2016-02-09T06:12:01.363Z,978.67
2016-02-09T06:13:01.350Z,978.62
2016-02-09T06:14:01.354Z,978.62
2016-02-09T06:15:01.341Z,978.57
2016-02-09T06:16:01.360Z,978.52
2016-02-09T06:17:01.368Z,978.51
2016-02-09T06:18:01.340Z,978.47
2016-02-09T06:19:01.344Z,978.52
2016-02-09T06:20:01.346Z,978.55
2016-02-09T06:21:01.348Z,978.5
2016-02-09T06:22:01.343Z,978.56
2016-02-09T06:23:01.361Z,978.57
2016-02-09T06:24:01.349Z,978.54
2016-02-09T06:25:01.335Z,978.56
2016-02-09T06:26:01.369Z,978.54
2016-02-09T06:27:01.361Z,978.56
2016-02-09T06:28:01.348Z,978.51
2016-02-09T06:29:01.335Z,978.51
2016-02-09T06:30:01.338Z,978.46
2016-02-09T06:31:01.342Z,978.45
2016-02-09T06:32:01.345Z,978.4
2016-02-09T06:33:01.333Z,978.38
2016-02-09T06:34:01.336Z,978.35
2016-02-09T06:35:01.338Z,978.33
2016-02-09T06:36:01.342Z,978.35
2016-02-09T06:37:01.345Z,978.31
2016-02-09T06:38:01.331Z,978.34
2016-02-09T06:39:01.349Z,978.32
2016-02-09T06:40:01.337Z,978.32
2016-02-09T06:41:01.339Z,978.4
2016-02-09T06:42:01.342Z,978.42
2016-02-09T06:43:01.329Z,978.41
2016-02-09T06:44:01.347Z,978.34
2016-02-09T06:45:01.335Z,978.32
2016-02-09T06:46:01.338Z,978.31
2016-02-09T06:47:01.340Z,978.34
2016-02-09T06:48:01.328Z,978.33
2016-02-09T06:49:01.362Z,978.26
2016-02-09T06:50:01.320Z,978.15
2016-02-09T06:51:01.355Z,978.13
2016-02-09T06:52:01.357Z,978.08
2016-02-09T06:53:01.317Z,978.01
2016-02-09T06:54:01.320Z,977.93
2016-02-09T06:55:01.323Z,977.94
2016-02-09T06:56:01.326Z,977.96
2016-02-09T06:57:01.329Z,978
2016-02-09T06:58:01.334Z,978.05
2016-02-09T06:59:01.321Z,978.06
2016-02-09T07:00:01.340Z,977.94
2016-02-09T07:01:01.327Z,977.96
2016-02-09T07:02:01.330Z,977.95
2016-02-09T07:03:01.316Z,977.97
2016-02-09T07:04:01.319Z,977.94
2016-02-09T07:05:01.312Z,977.84
2016-02-09T07:06:01.314Z,977.82
2016-02-09T07:07:01.318Z,977.76
2016-02-09T07:08:01.336Z,977.7
2016-02-09T07:09:01.323Z,977.6
2016-02-09T07:10:01.310Z,977.55
2016-02-09T07:11:01.328Z,977.57
2016-02-09T07:12:01.350Z,977.53
2016-02-09T07:13:01.323Z,977.5
2016-02-09T07:14:01.325Z,977.46
2016-02-09T07:15:01.327Z,977.45
2016-02-09T07:16:01.331Z,977.4
2016-02-09T07:17:01.317Z,977.43
2016-02-09T07:18:01.320Z,977.4
2016-02-09T07:19:01.323Z,977.43
2016-02-09T07:20:01.309Z,977.36
2016-02-09T07:21:01.312Z,977.36
2016-02-09T07:22:01.315Z,977.32
2016-02-09T07:23:01.317Z,977.27
2016-02-09T07:24:01.336Z,977.26
2016-02-09T07:25:01.328Z,977.16
2016-02-09T07:26:01.315Z,977.14
2016-02-09T07:27:01.318Z,977.09
2016-02-09T07:28:01.321Z,977.04
2016-02-09T07:29:01.323Z,976.97
2016-02-09T07:30:01.326Z,976.96
2016-02-09T07:31:01.313Z,976.92
2016-02-09T07:32:01.331Z,976.87
2016-02-09T07:33:01.334Z,976.8
2016-02-09T07:34:01.322Z,976.81
2016-02-09T07:35:01.325Z,976.73
2016-02-09T07:36:01.327Z,976.75
2016-02-09T07:37:01.346Z,976.67
2016-02-09T07:38:01.317Z,976.67
2016-02-09T07:39:01.336Z,976.67
2016-02-09T07:40:01.323Z,976.65
2016-02-09T07:41:01.310Z,976.66
2016-02-09T07:42:01.314Z,976.65
2016-02-09T07:43:01.332Z,976.62
2016-02-09T07:44:01.335Z,976.6
2016-02-09T07:45:01.322Z,976.55
2016-02-09T07:46:01.325Z,976.55
2016-02-09T07:47:01.331Z,976.52
2016-02-09T07:48:01.333Z,976.51
2016-02-09T07:49:01.368Z,976.5
2016-02-09T07:50:01.323Z,976.46
2016-02-09T07:51:01.325Z,976.43
2016-02-09T07:52:01.328Z,976.38
2016-02-09T07:53:01.331Z,976.3
2016-02-09T07:54:01.335Z,976.31
2016-02-09T07:55:01.322Z,976.21
2016-02-09T07:56:01.343Z,976.19
2016-02-09T07:57:01.345Z,976.09
2016-02-09T07:58:01.333Z,976.08
2016-02-09T07:59:01.335Z,976.08
2016-02-09T08:00:01.337Z,976.04
2016-02-09T08:01:01.328Z,976.12
2016-02-09T08:02:01.330Z,976.07
2016-02-09T08:03:01.348Z,975.97
2016-02-09T08:04:01.351Z,975.93
2016-02-09T08:05:01.339Z,975.86
2016-02-09T08:06:01.342Z,975.89
2016-02-09T08:07:01.344Z,975.8
2016-02-09T08:08:01.362Z,975.86
2016-02-09T08:09:01.336Z,975.8
2016-02-09T08:10:01.369Z,975.76
2016-02-09T08:11:01.341Z,975.76
2016-02-09T08:12:01.344Z,975.73
2016-02-09T08:13:01.378Z,975.67
2016-02-09T08:14:01.349Z,975.59
2016-02-09T08:15:01.356Z,975.56
2016-02-09T08:16:01.358Z,975.53
2016-02-09T08:17:01.346Z,975.52
2016-02-09T08:18:01.352Z,975.42
2016-02-09T08:19:01.354Z,975.42
2016-02-09T08:20:01.374Z,975.46
2016-02-09T08:21:01.360Z,975.42
2016-02-09T08:22:01.366Z,975.47
2016-02-09T08:23:01.371Z,975.42
2016-02-09T08:24:01.373Z,975.35
2016-02-09T08:25:01.359Z,975.33
2016-02-09T08:26:01.363Z,975.25
2016-02-09T08:27:01.381Z,975.24
2016-02-09T08:28:01.368Z,975.18
2016-02-09T08:29:01.371Z,975.16
2016-02-09T08:30:01.358Z,975.15
2016-02-09T08:31:01.365Z,975.21
2016-02-09T08:32:01.368Z,975.22
2016-02-09T08:33:01.371Z,975.22
2016-02-09T08:34:01.373Z,975.19
2016-02-09T08:35:01.375Z,975.19
2016-02-09T08:36:01.363Z,975.16
2016-02-09T08:37:01.365Z,975.12
2016-02-09T08:38:01.367Z,975.09
2016-02-09T08:39:01.371Z,975.09
2016-02-09T08:40:01.387Z,975.05
2016-02-09T08:41:01.361Z,975.12
2016-02-09T08:42:01.351Z,975.13
2016-02-09T08:43:01.340Z,975.13
2016-02-09T08:44:01.331Z,975.17
2016-02-09T08:45:01.324Z,975.15
2016-02-09T08:46:01.306Z,975.11
2016-02-09T08:47:01.321Z,975.05
2016-02-09T08:48:01.318Z,974.95
2016-02-09T08:49:01.301Z,974.92
2016-02-09T08:50:01.332Z,974.89
2016-02-09T08:51:01.303Z,974.78
2016-02-09T08:52:01.303Z,974.74
2016-02-09T08:53:01.306Z,974.72
2016-02-09T08:54:01.292Z,974.64
2016-02-09T08:55:01.294Z,974.6
2016-02-09T08:56:01.296Z,974.5
2016-02-09T08:57:01.298Z,974.46
2016-02-09T08:58:01.301Z,974.38
2016-02-09T08:59:01.305Z,974.39
2016-02-09T09:00:01.308Z,974.38
2016-02-09T09:01:01.310Z,974.32
2016-02-09T09:02:01.312Z,974.22
2016-02-09T09:03:01.315Z,974.18
2016-02-09T09:04:01.317Z,974.21
2016-02-09T09:05:01.319Z,974.18
2016-02-09T09:06:01.307Z,974.15
2016-02-09T09:07:01.310Z,974.07
2016-02-09T09:08:01.313Z,974.06
2016-02-09T09:09:01.315Z,974.08
2016-02-09T09:10:01.319Z,974.07
2016-02-09T09:11:01.322Z,974.05
2016-02-09T09:12:01.324Z,974
2016-02-09T09:13:01.327Z,974.02
2016-02-09T09:14:01.330Z,974
2016-02-09T09:15:01.319Z,973.9
2016-02-09T09:16:01.321Z,973.85
2016-02-09T09:17:01.324Z,973.85
2016-02-09T09:18:01.327Z,973.8
2016-02-09T09:19:01.335Z,973.76
2016-02-09T09:20:01.338Z,973.74
2016-02-09T09:21:01.343Z,973.63
2016-02-09T09:22:01.347Z,973.65
2016-02-09T09:23:01.333Z,973.48
2016-02-09T09:24:01.335Z,973.45
2016-02-09T09:25:01.339Z,973.4
2016-02-09T09:26:01.341Z,973.37
2016-02-09T09:27:01.360Z,973.32
2016-02-09T09:28:01.346Z,973.32
2016-02-09T09:29:01.351Z,973.26
2016-02-09T09:30:01.354Z,973.16
2016-02-09T09:31:01.356Z,973.18
2016-02-09T09:32:01.375Z,973.13
2016-02-09T09:33:01.362Z,973.07
2016-02-09T09:34:01.365Z,973.05
2016-02-09T09:35:01.369Z,972.99
2016-02-09T09:36:01.371Z,972.91
2016-02-09T09:37:01.373Z,972.9
2016-02-09T09:38:01.377Z,972.92
2016-02-09T09:39:01.379Z,972.95
2016-02-09T09:40:01.381Z,972.97
2016-02-09T09:41:01.369Z,972.95
2016-02-09T09:42:01.372Z,972.8
2016-02-09T09:43:01.376Z,972.81
2016-02-09T09:44:01.378Z,972.77
2016-02-09T09:45:01.412Z,972.74
2016-02-09T09:46:01.384Z,972.66
2016-02-09T09:47:01.386Z,972.62
2016-02-09T09:48:01.384Z,972.66
2016-02-09T09:49:01.386Z,972.69
2016-02-09T09:50:01.388Z,972.64
2016-02-09T09:51:01.391Z,972.55
2016-02-09T09:52:01.394Z,972.59
2016-02-09T09:53:01.397Z,972.52
2016-02-09T09:54:01.399Z,972.48
2016-02-09T09:55:01.402Z,972.45
2016-02-09T09:56:01.390Z,972.44
2016-02-09T09:57:01.408Z,972.44
2016-02-09T09:58:01.412Z,972.43
2016-02-09T09:59:01.398Z,972.39
2016-02-09T10:00:01.400Z,972.38
2016-02-09T10:01:01.403Z,972.3
2016-02-09T10:02:01.406Z,972.28
2016-02-09T10:03:01.408Z,972.22
2016-02-09T10:04:01.411Z,972.24
2016-02-09T10:05:01.414Z,972.17
2016-02-09T10:06:01.417Z,972.14
2016-02-09T10:07:01.419Z,972.19
2016-02-09T10:08:01.422Z,972.11
2016-02-09T10:09:01.409Z,972.1
2016-02-09T10:10:01.411Z,972.06
2016-02-09T10:11:01.414Z,972.05
2016-02-09T10:12:01.433Z,972
2016-02-09T10:13:01.435Z,971.96
2016-02-09T10:14:01.422Z,971.9
2016-02-09T10:15:01.440Z,971.88
2016-02-09T10:16:01.428Z,971.82
2016-02-09T10:17:01.430Z,971.79
2016-02-09T10:18:01.433Z,971.82
2016-02-09T10:19:01.436Z,971.76
2016-02-09T10:20:01.443Z,971.74
2016-02-09T10:21:01.430Z,971.63
2016-02-09T10:22:01.447Z,971.61
2016-02-09T10:23:01.435Z,971.53
2016-02-09T10:24:01.438Z,971.53
2016-02-09T10:25:01.441Z,971.38
2016-02-09T10:26:01.443Z,971.41
2016-02-09T10:27:01.446Z,971.39
2016-02-09T10:28:01.449Z,971.39
2016-02-09T10:29:01.439Z,971.38
2016-02-09T10:30:01.442Z,971.31
2016-02-09T10:31:01.445Z,971.25
2016-02-09T10:32:01.448Z,971.27
2016-02-09T10:33:01.450Z,971.27
2016-02-09T10:34:01.469Z,971.19
2016-02-09T10:35:01.456Z,971.23
2016-02-09T10:36:01.458Z,971.17
2016-02-09T10:37:01.461Z,971.1
2016-02-09T10:38:01.448Z,971
2016-02-09T10:39:01.451Z,971.03
2016-02-09T10:40:01.453Z,971.02
2016-02-09T10:41:01.471Z,971.01
2016-02-09T10:42:01.459Z,970.95
2016-02-09T10:43:01.461Z,970.92
2016-02-09T10:44:01.479Z,970.91
2016-02-09T10:45:01.483Z,970.8
2016-02-09T10:46:01.471Z,970.72
2016-02-09T10:47:01.490Z,970.63
2016-02-09T10:48:01.477Z,970.67
2016-02-09T10:49:01.479Z,970.62
2016-02-09T10:50:01.482Z,970.53
2016-02-09T10:51:01.480Z,970.56
2016-02-09T10:52:01.482Z,970.57
2016-02-09T10:53:01.485Z,970.49
2016-02-09T10:54:01.488Z,970.45
2016-02-09T10:55:01.490Z,970.43
2016-02-09T10:56:01.493Z,970.39
2016-02-09T10:57:01.496Z,970.35
2016-02-09T10:58:01.498Z,970.31
2016-02-09T10:59:01.501Z,970.31
2016-02-09T11:00:01.504Z,970.24
2016-02-09T11:01:01.507Z,970.13
2016-02-09T11:02:01.495Z,970.07
2016-02-09T11:03:01.513Z,969.97
2016-02-09T11:04:01.501Z,970.03
2016-02-09T11:05:01.518Z,970.04
2016-02-09T11:06:01.521Z,970.12
2016-02-09T11:07:01.509Z,970.14
2016-02-09T11:08:01.527Z,970.01
2016-02-09T11:09:01.512Z,969.96
2016-02-09T11:10:01.519Z,969.79
2016-02-09T11:11:01.521Z,969.67
2016-02-09T11:12:01.542Z,969.71
2016-02-09T11:13:01.528Z,969.73
2016-02-09T11:14:01.545Z,969.62
2016-02-09T11:15:01.547Z,969.61
2016-02-09T11:16:01.536Z,969.57
2016-02-09T11:17:01.538Z,969.52
2016-02-09T11:18:01.540Z,969.47
2016-02-09T11:19:01.547Z,969.45
2016-02-09T11:20:01.549Z,969.33
2016-02-09T11:21:01.554Z,969.36
2016-02-09T11:22:01.572Z,969.26
2016-02-09T11:23:01.575Z,969.18
2016-02-09T11:24:01.563Z,969.22
2016-02-09T11:25:01.565Z,969.12
2016-02-09T11:26:01.584Z,969.06
2016-02-09T11:27:01.571Z,969.09
2016-02-09T11:28:01.574Z,969.01
2016-02-09T11:29:01.576Z,969.01
2016-02-09T11:30:01.581Z,968.94
2016-02-09T11:31:01.583Z,968.88
2016-02-09T11:32:01.587Z,968.88
2016-02-09T11:33:01.589Z,968.82
2016-02-09T11:34:01.592Z,968.8
2016-02-09T11:35:01.594Z,968.74
2016-02-09T11:36:01.597Z,968.78
2016-02-09T11:37:01.600Z,968.7
2016-02-09T11:38:01.603Z,968.64
2016-02-09T11:39:01.606Z,968.6
2016-02-09T11:40:01.641Z,968.63
2016-02-09T11:41:01.628Z,968.53
2016-02-09T11:42:01.646Z,968.49
2016-02-09T11:43:01.649Z,968.38
2016-02-09T11:44:01.652Z,968.36
2016-02-09T11:45:01.639Z,968.39
2016-02-09T11:46:01.644Z,968.29
2016-02-09T11:47:01.647Z,968.28
2016-02-09T11:48:01.649Z,968.31
2016-02-09T11:49:01.652Z,968.19
2016-02-09T11:50:01.639Z,968.14
2016-02-09T11:51:01.647Z,968.1
2016-02-09T11:52:01.650Z,968.05
2016-02-09T11:53:01.653Z,968.09
2016-02-09T11:54:01.660Z,967.96
2016-02-09T11:55:01.693Z,968.09
2016-02-09T11:56:01.665Z,968.04
2016-02-09T11:57:01.668Z,967.93
2016-02-09T11:58:01.670Z,967.93
2016-02-09T11:59:01.673Z,967.93
2016-02-09T12:00:01.676Z,967.91
2016-02-09T12:01:01.695Z,967.81
2016-02-09T12:02:01.681Z,967.79
2016-02-09T12:03:01.687Z,967.78
2016-02-09T12:04:01.690Z,967.62
2016-02-09T12:05:01.698Z,967.53
2016-02-09T12:06:01.701Z,967.5
2016-02-09T12:07:01.704Z,967.41
2016-02-09T12:08:01.707Z,967.42
2016-02-09T12:09:01.725Z,967.55
2016-02-09T12:10:01.728Z,967.29
2016-02-09T12:11:01.734Z,967.25
2016-02-09T12:12:01.736Z,967.17
2016-02-09T12:13:01.739Z,967.17
2016-02-09T12:14:01.726Z,967.1
2016-02-09T12:15:01.728Z,967.21
2016-02-09T12:16:01.731Z,966.93
2016-02-09T12:17:01.750Z,967.06
2016-02-09T12:18:01.753Z,967.23
2016-02-09T12:19:01.770Z,967.14
2016-02-09T12:20:01.758Z,967.07
2016-02-09T12:21:01.766Z,967.02
2016-02-09T12:22:01.769Z,967.03
2016-02-09T12:23:01.772Z,966.97
2016-02-09T12:24:01.774Z,966.89
2016-02-09T12:25:01.777Z,966.86
2016-02-09T12:26:01.811Z,966.96
2016-02-09T12:27:01.785Z,966.53
2016-02-09T12:28:01.788Z,966.86
2016-02-09T12:29:01.806Z,966.67
2016-02-09T12:30:01.797Z,966.45
2016-02-09T12:31:01.816Z,966.74